Time;durP1;ratioP1;P1;durP2;ratioP2;P2;SDS_P1;SDS_P2;PMS_P1;PMS_P2;Temp;Humidity;BMP_temperature;BMP_pressure;BME280_temperature;BME280_humidity;BME280_pressure;Samples;Min_cycle;Max_cycle;Signal;HPM_P1;HPM_P2
2022/05/04 00:01:43;;;;;;;;;;;;;;;;;;5028269;28;20198;-63
2022/05/04 00:04:09;;;;;;;;;;;;;;;;;;5021843;28;20966;-63
2022/05/04 00:06:35;;;;;;;;;;;;;;;;;;5018744;28;20431;-63
2022/05/04 00:09:01;;;;;;;;;;;;;;;;;;5023989;28;19923;-64
2022/05/04 00:11:27;;;;;;;;;;;;;;;;;;5026730;28;20022;-63
2022/05/04 00:13:53;;;;;;;;;;;;;;;;;;5017888;28;19928;-64
2022/05/04 00:16:19;;;;;;;;;;;;;;;;;;5024880;28;19969;-65
2022/05/04 00:18:45;;;;;;;;;;;;;;;;;;5005019;28;19986;-64
2022/05/04 00:21:11;;;;;;;;;;;;;;;;;;5025520;28;19944;-64
2022/05/04 00:23:37;;;;;;;;;;;;;;;;;;5020284;28;20355;-63
2022/05/04 00:26:03;;;;;;;;;;;;;;;;;;5022914;28;20428;-63
2022/05/04 00:28:29;;;;;;;;;;;;;;;;;;5025089;28;20003;-63
2022/05/04 00:30:55;;;;;;;;;;;;;;;;;;5020899;28;19923;-63
2022/05/04 00:33:21;;;;;;;;;;;;;;;;;;5022359;28;19916;-63
2022/05/04 00:35:47;;;;;;;;;;;;;;;;;;5021193;28;19936;-63
2022/05/04 00:38:13;;;;;;;;;;;;;;;;;;5021693;28;19970;-64
2022/05/04 00:40:39;;;;;;;;;;;;;;;;;;5019934;28;20549;-64
2022/05/04 00:43:05;;;;;;;;;;;;;;;;;;5002655;28;19917;-64
2022/05/04 00:45:31;;;;;;;;;;;;;;;;;;5024857;28;20398;-64
2022/05/04 00:47:57;;;;;;;;;;;;;;;;;;5023123;28;19916;-64
2022/05/04 00:50:23;;;;;;;;;;;;;;;;;;5023629;28;21135;-66
2022/05/04 00:52:50;;;;;;;;;;;;;;;;;;5004829;28;19917;-64
2022/05/04 00:55:15;;;;;;;;;;;;;;;;;;5021151;28;19921;-65
2022/05/04 01:00:26;;;;;;;;;;;;;;;;;;5023693;28;19925;-65
2022/05/04 01:02:52;;;;;;;;;;;;;;;;;;5019087;28;19925;-64
2022/05/04 01:05:18;;;;;;;;;;;;;;;;;;5021463;28;19935;-63
2022/05/04 01:07:44;;;;;;;;;;;;;;;;;;5023606;28;19924;-64
2022/05/04 01:10:10;;;;;;;;;;;;;;;;;;5024927;28;20290;-63
2022/05/04 01:12:36;;;;;;;;;;;;;;;;;;5005036;28;19921;-63
2022/05/04 01:15:02;;;;;;;;;;;;;;;;;;5025190;28;19917;-63
2022/05/04 01:17:28;;;;;;;;;;;;;;;;;;5020383;28;19927;-64
2022/05/04 01:19:57;;;;;;;;;;;;;;;;;;5010019;28;19924;-63
2022/05/04 01:22:23;;;;;;;;;;;;;;;;;;5014129;28;19921;-63
2022/05/04 01:24:48;;;;;;;;;;;;;;;;;;5025697;28;19921;-63
2022/05/04 01:27:14;;;;;;;;;;;;;;;;;;5019455;28;19927;-62
2022/05/04 01:29:40;;;;;;;;;;;;;;;;;;5019632;28;20370;-64
2022/05/04 01:32:06;;;;;;;;;;;;;;;;;;5024192;28;20285;-64
2022/05/04 01:34:32;;;;;;;;;;;;;;;;;;5018914;28;19975;-64
2022/05/04 01:36:58;;;;;;;;;;;;;;;;;;5022342;28;20035;-64
2022/05/04 01:39:24;;;;;;;;;;;;;;;;;;5023524;28;20325;-64
2022/05/04 01:42:02;;;;;;;;;;;;;;;;;;5018823;28;19916;-65
2022/05/04 01:44:28;;;;;;;;;;;;;;;;;;5023788;28;19920;-64
2022/05/04 01:46:54;;;;;;;;;;;;;;;;;;5020955;28;19967;-64
2022/05/04 01:49:20;;;;;;;;;;;;;;;;;;5022388;28;20035;-64
2022/05/04 01:51:46;;;;;;;;;;;;;;;;;;5016579;28;20117;-64
2022/05/04 01:54:12;;;;;;;;;;;;;;;;;;5005252;28;20674;-64
2022/05/04 01:56:38;;;;;;;;;;;;;;;;;;5015690;28;19968;-65
2022/05/04 01:59:04;;;;;;;;;;;;;;;;;;5022361;28;19920;-65
2022/05/04 02:01:30;;;;;;;;;;;;;;;;;;5024447;28;19938;-63
2022/05/04 02:03:56;;;;;;;;;;;;;;;;;;5022045;28;19921;-63
2022/05/04 02:06:22;;;;;;;;;;;;;;;;;;5020931;28;19928;-62
2022/05/04 02:08:48;;;;;;;;;;;;;;;;;;5018730;28;19920;-63
2022/05/04 02:11:14;;;;;;;;;;;;;;;;;;5006437;28;20298;-62
2022/05/04 02:13:40;;;;;;;;;;;;;;;;;;4999298;28;20356;-63
2022/05/04 02:16:06;;;;;;;;;;;;;;;;;;5022766;28;19920;-62
2022/05/04 02:18:33;;;;;;;;;;;;;;;;;;5027569;28;19916;-62
2022/05/04 02:20:58;;;;;;;;;;;;;;;;;;5022692;28;19917;-63
2022/05/04 02:23:24;;;;;;;;;;;;;;;;;;5023711;28;20012;-64
2022/05/04 02:25:50;;;;;;;;;;;;;;;;;;5001577;28;20020;-64
2022/05/04 02:28:16;;;;;;;;;;;;;;;;;;5021459;28;19917;-64
2022/05/04 02:30:43;;;;;;;;;;;;;;;;;;5022059;28;20351;-63
2022/05/04 02:33:09;;;;;;;;;;;;;;;;;;5008868;28;20449;-64
2022/05/04 02:41:04;;;;;;;;;;;;;;;;;;5024601;28;20026;-63
2022/05/04 02:43:30;;;;;;;;;;;;;;;;;;5021930;28;20012;-64
2022/05/04 02:45:56;;;;;;;;;;;;;;;;;;5000277;28;20530;-64
2022/05/04 02:48:22;;;;;;;;;;;;;;;;;;5008899;28;19916;-64
2022/05/04 02:50:48;;;;;;;;;;;;;;;;;;5025241;28;19925;-64
2022/05/04 02:53:14;;;;;;;;;;;;;;;;;;5024170;28;20003;-65
2022/05/04 02:55:40;;;;;;;;;;;;;;;;;;5024425;28;19920;-64
2022/05/04 02:58:06;;;;;;;;;;;;;;;;;;5026473;28;19917;-64
2022/05/04 03:00:32;;;;;;;;;;;;;;;;;;5027120;28;19925;-64
2022/05/04 03:02:58;;;;;;;;;;;;;;;;;;5006141;28;20699;-64
2022/05/04 03:05:24;;;;;;;;;;;;;;;;;;5024751;28;20015;-64
2022/05/04 03:07:50;;;;;;;;;;;;;;;;;;5003982;28;19917;-64
2022/05/04 03:10:16;;;;;;;;;;;;;;;;;;5020580;28;20454;-64
2022/05/04 03:12:42;;;;;;;;;;;;;;;;;;5026323;28;20274;-63
2022/05/04 03:15:08;;;;;;;;;;;;;;;;;;5022933;28;19917;-64
2022/05/04 03:17:35;;;;;;;;;;;;;;;;;;5022463;28;20690;-63
2022/05/04 03:20:01;;;;;;;;;;;;;;;;;;5023154;28;19960;-66
2022/05/04 03:22:27;;;;;;;;;;;;;;;;;;5027612;28;20356;-63
2022/05/04 03:24:52;;;;;;;;;;;;;;;;;;5019126;28;20328;-63
2022/05/04 03:27:18;;;;;;;;;;;;;;;;;;5023669;28;19924;-63
2022/05/04 03:29:45;;;;;;;;;;;;;;;;;;4996605;28;20074;-63
2022/05/04 03:32:10;;;;;;;;;;;;;;;;;;5025697;28;20393;-64
2022/05/04 03:34:36;;;;;;;;;;;;;;;;;;5021966;28;19974;-64
2022/05/04 03:37:02;;;;;;;;;;;;;;;;;;5025734;28;19923;-63
2022/05/04 03:39:29;;;;;;;;;;;;;;;;;;5024728;28;19987;-63
2022/05/04 03:41:55;;;;;;;;;;;;;;;;;;5018365;28;19922;-63
2022/05/04 03:44:21;;;;;;;;;;;;;;;;;;5022740;28;19943;-63
2022/05/04 03:46:47;;;;;;;;;;;;;;;;;;5021494;28;19921;-64
2022/05/04 03:49:13;;;;;;;;;;;;;;;;;;5026680;28;20350;-63
2022/05/04 03:51:39;;;;;;;;;;;;;;;;;;5021029;28;19917;-64
2022/05/04 03:54:05;;;;;;;;;;;;;;;;;;5027079;28;19924;-64
2022/05/04 03:56:31;;;;;;;;;;;;;;;;;;5024688;28;19970;-63
2022/05/04 03:58:56;;;;;;;;;;;;;;;;;;5023005;28;20305;-63
2022/05/04 04:01:22;;;;;;;;;;;;;;;;;;5026165;28;19917;-63
2022/05/04 04:03:48;;;;;;;;;;;;;;;;;;5006152;28;19925;-63
2022/05/04 04:06:15;;;;;;;;;;;;;;;;;;5023481;28;19929;-63
2022/05/04 04:08:41;;;;;;;;;;;;;;;;;;5002318;28;19921;-63
2022/05/04 04:11:07;;;;;;;;;;;;;;;;;;5026207;28;19923;-63
2022/05/04 04:13:33;;;;;;;;;;;;;;;;;;5005463;28;19921;-63
2022/05/04 04:15:59;;;;;;;;;;;;;;;;;;5010308;28;19962;-63
2022/05/04 04:18:25;;;;;;;;;;;;;;;;;;5026200;28;20329;-63
2022/05/04 04:23:36;;;;;;;;;;;;;;;;;;5023501;28;19928;-63
2022/05/04 04:26:02;;;;;;;;;;;;;;;;;;5004589;28;19920;-65
2022/05/04 04:28:28;;;;;;;;;;;;;;;;;;5026807;28;19923;-66
2022/05/04 04:30:54;;;;;;;;;;;;;;;;;;5020664;28;19928;-64
2022/05/04 04:33:26;;;;;;;;;;;;;;;;;;5029246;28;19920;-64
2022/05/04 04:35:52;;;;;;;;;;;;;;;;;;5024722;28;22001;-64
2022/05/04 04:38:18;;;;;;;;;;;;;;;;;;5022567;28;20062;-63
2022/05/04 04:40:44;;;;;;;;;;;;;;;;;;5021146;28;19950;-64
2022/05/04 04:43:10;;;;;;;;;;;;;;;;;;5019800;28;19917;-63
2022/05/04 04:45:36;;;;;;;;;;;;;;;;;;5021278;28;20362;-64
2022/05/04 04:48:05;;;;;;;;;;;;;;;;;;5013449;28;19964;-64
2022/05/04 04:50:35;;;;;;;;;;;;;;;;;;5008653;28;20288;-65
2022/05/04 04:53:01;;;;;;;;;;;;;;;;;;5024931;28;20342;-65
2022/05/04 04:55:27;;;;;;;;;;;;;;;;;;5010686;28;19920;-65
2022/05/04 04:57:53;;;;;;;;;;;;;;;;;;5025627;28;19927;-64
2022/05/04 05:00:20;;;;;;;;;;;;;;;;;;5030559;28;19970;-64
2022/05/04 05:02:46;;;;;;;;;;;;;;;;;;5024831;28;19924;-65
2022/05/04 05:05:12;;;;;;;;;;;;;;;;;;5009276;28;19986;-64
2022/05/04 05:07:38;;;;;;;;;;;;;;;;;;5005947;28;19920;-63
2022/05/04 05:10:05;;;;;;;;;;;;;;;;;;5030368;28;19917;-63
2022/05/04 05:12:34;;;;;;;;;;;;;;;;;;5030522;28;20362;-66
2022/05/04 05:17:45;;;;;;;;;;;;;;;;;;5023337;28;20461;-68
2022/05/04 05:20:11;;;;;;;;;;;;;;;;;;5033724;28;19963;-63
2022/05/04 05:22:36;;;;;;;;;;;;;;;;;;5020938;28;20035;-62
2022/05/04 05:25:02;;;;;;;;;;;;;;;;;;5022823;28;19921;-62
2022/05/04 05:27:29;;;;;;;;;;;;;;;;;;5024541;28;19925;-62
2022/05/04 05:29:55;;;;;;;;;;;;;;;;;;5021734;28;19916;-62
2022/05/04 05:32:21;;;;;;;;;;;;;;;;;;5013291;28;20132;-62
2022/05/04 05:34:47;;;;;;;;;;;;;;;;;;5014862;28;19913;-61
2022/05/04 05:37:14;;;;;;;;;;;;;;;;;;5006451;28;20347;-62
2022/05/04 05:39:40;;;;;;;;;;;;;;;;;;5025216;28;19917;-65
2022/05/04 05:42:10;;;;;;;;;;;;;;;;;;5024444;28;20325;-66
2022/05/04 05:44:36;;;;;;;;;;;;;;;;;;5029456;28;19958;-63
2022/05/04 05:47:02;;;;;;;;;;;;;;;;;;5004267;28;20772;-63
2022/05/04 05:49:28;;;;;;;;;;;;;;;;;;5032632;28;20011;-62
2022/05/04 05:51:54;;;;;;;;;;;;;;;;;;5015176;28;19969;-64
2022/05/04 05:54:20;;;;;;;;;;;;;;;;;;5005402;28;19916;-63
2022/05/04 05:56:46;;;;;;;;;;;;;;;;;;5019038;28;19961;-63
2022/05/04 05:59:12;;;;;;;;;;;;;;;;;;5023108;28;20248;-63
2022/05/04 06:01:39;;;;;;;;;;;;;;;;;;5017943;28;19917;-63
2022/05/04 06:04:05;;;;;;;;;;;;;;;;;;5020576;28;19989;-63
2022/05/04 06:06:31;;;;;;;;;;;;;;;;;;5001369;28;20374;-63
2022/05/04 06:08:57;;;;;;;;;;;;;;;;;;5022358;28;19916;-64
2022/05/04 06:11:23;;;;;;;;;;;;;;;;;;5022634;28;19917;-63
2022/05/04 06:13:49;;;;;;;;;;;;;;;;;;5004202;28;19962;-61
2022/05/04 06:16:15;;;;;;;;;;;;;;;;;;5022263;28;19929;-62
2022/05/04 06:18:42;;;;;;;;;;;;;;;;;;4999972;28;20031;-61
2022/05/04 06:21:08;;;;;;;;;;;;;;;;;;5020019;28;19921;-61
2022/05/04 06:23:34;;;;;;;;;;;;;;;;;;5021562;28;19974;-64
2022/05/04 06:26:00;;;;;;;;;;;;;;;;;;5027023;28;19928;-63
2022/05/04 06:28:26;;;;;;;;;;;;;;;;;;5022683;28;19920;-63
2022/05/04 06:36:23;;;;;;;;;;;;;;;;;;5025299;28;19952;-68
2022/05/04 06:38:49;;;;;;;;;;;;;;;;;;5027603;28;20003;-68
2022/05/04 06:41:14;;;;;;;;;;;;;;;;;;5029678;28;19943;-67
2022/05/04 06:43:40;;;;;;;;;;;;;;;;;;5001381;28;19917;-68
2022/05/04 06:46:06;;;;;;;;;;;;;;;;;;5020343;28;20119;-67
2022/05/04 06:48:32;;;;;;;;;;;;;;;;;;5019598;28;19920;-67
2022/05/04 06:50:58;;;;;;;;;;;;;;;;;;5017744;28;19917;-67
2022/05/04 06:53:24;;;;;;;;;;;;;;;;;;5036597;28;19929;-67
2022/05/04 06:55:50;;;;;;;;;;;;;;;;;;5001428;28;19976;-68
2022/05/04 06:58:16;;;;;;;;;;;;;;;;;;5020176;28;20583;-68
2022/05/04 07:00:42;;;;;;;;;;;;;;;;;;5015183;28;19924;-68
2022/05/04 07:03:08;;;;;;;;;;;;;;;;;;5024055;28;20031;-69
2022/05/04 07:05:35;;;;;;;;;;;;;;;;;;5015348;28;20027;-68
2022/05/04 07:08:01;;;;;;;;;;;;;;;;;;5024457;28;19946;-67
2022/05/04 07:10:27;;;;;;;;;;;;;;;;;;5018827;28;19928;-67
2022/05/04 07:12:53;;;;;;;;;;;;;;;;;;5005800;28;20601;-66
2022/05/04 07:15:19;;;;;;;;;;;;;;;;;;5017005;28;19921;-69
2022/05/04 07:17:45;;;;;;;;;;;;;;;;;;5028079;28;19916;-68
2022/05/04 07:20:11;;;;;;;;;;;;;;;;;;5033331;28;19917;-68
2022/05/04 07:22:37;;;;;;;;;;;;;;;;;;5015897;28;19948;-69
2022/05/04 07:25:03;;;;;;;;;;;;;;;;;;5019854;28;20565;-68
2022/05/04 07:27:28;;;;;;;;;;;;;;;;;;5021292;28;20026;-68
2022/05/04 07:29:54;;;;;;;;;;;;;;;;;;5015181;28;20440;-68
2022/05/04 07:32:20;;;;;;;;;;;;;;;;;;5020022;28;19917;-69
2022/05/04 07:34:46;;;;;;;;;;;;;;;;;;5022859;28;19948;-69
2022/05/04 07:37:12;;;;;;;;;;;;;;;;;;5021827;28;20397;-70
2022/05/04 07:42:26;;;;;;;;;;;;;;;;;;5023527;28;19931;-68
2022/05/04 07:44:52;;;;;;;;;;;;;;;;;;5001326;28;22735;-68
2022/05/04 07:47:19;;;;;;;;;;;;;;;;;;5025875;28;19923;-68
2022/05/04 07:49:45;;;;;;;;;;;;;;;;;;5025595;28;19912;-68
2022/05/04 07:52:11;;;;;;;;;;;;;;;;;;5024583;28;19935;-68
2022/05/04 07:54:37;;;;;;;;;;;;;;;;;;5020633;28;20349;-67
2022/05/04 07:57:03;;;;;;;;;;;;;;;;;;5026203;28;19920;-67
2022/05/04 07:59:29;;;;;;;;;;;;;;;;;;5020469;28;19921;-67
2022/05/04 08:04:39;;;;;;;;;;;;;;;;;;5023580;28;20190;-68
2022/05/04 08:07:05;;;;;;;;;;;;;;;;;;5006290;28;20445;-68
2022/05/04 08:09:36;;;;;;;;;;;;;;;;;;5027301;28;20072;-71
2022/05/04 08:12:02;;;;;;;;;;;;;;;;;;5021897;28;19917;-70
2022/05/04 08:14:28;;;;;;;;;;;;;;;;;;5004989;28;20468;-67
2022/05/04 08:16:54;;;;;;;;;;;;;;;;;;5019096;28;19916;-70
2022/05/04 08:19:20;;;;;;;;;;;;;;;;;;5023323;28;19916;-70
2022/05/04 08:21:46;;;;;;;;;;;;;;;;;;5018310;28;19923;-69
2022/05/04 08:24:12;;;;;;;;;;;;;;;;;;5025674;28;19923;-67
2022/05/04 08:26:38;;;;;;;;;;;;;;;;;;5022126;28;19916;-70
2022/05/04 08:29:05;;;;;;;;;;;;;;;;;;5020749;28;20747;-67
2022/05/04 08:31:33;;;;;;;;;;;;;;;;;;5026257;28;19939;-68
2022/05/04 08:33:59;;;;;;;;;;;;;;;;;;5008896;28;19927;-68
2022/05/04 08:36:25;;;;;;;;;;;;;;;;;;5025252;28;19920;-68
2022/05/04 08:38:51;;;;;;;;;;;;;;;;;;5026960;28;20015;-67
2022/05/04 08:41:17;;;;;;;;;;;;;;;;;;5011673;28;20311;-68
2022/05/04 08:43:43;;;;;;;;;;;;;;;;;;5006802;28;19960;-68
2022/05/04 08:46:09;;;;;;;;;;;;;;;;;;5025293;28;19925;-69
2022/05/04 08:48:35;;;;;;;;;;;;;;;;;;5025270;28;20193;-68
2022/05/04 08:51:04;;;;;;;;;;;;;;;;;;5031277;28;19916;-68
2022/05/04 08:53:31;;;;;;;;;;;;;;;;;;5030569;28;20571;-68
2022/05/04 08:55:57;;;;;;;;;;;;;;;;;;5024825;28;19921;-68
2022/05/04 08:58:23;;;;;;;;;;;;;;;;;;5024715;28;19916;-68
2022/05/04 09:00:49;;;;;;;;;;;;;;;;;;5021853;28;19931;-69
2022/05/04 09:03:15;;;;;;;;;;;;;;;;;;5023986;28;20947;-68
2022/05/04 09:05:41;;;;;;;;;;;;;;;;;;5024617;28;19924;-65
2022/05/04 09:08:07;;;;;;;;;;;;;;;;;;5023761;28;19944;-66
2022/05/04 09:10:34;;;;;;;;;;;;;;;;;;5010913;28;19920;-68
2022/05/04 09:13:06;;;;;;;;;;;;;;;;;;5034822;28;19917;-66
2022/05/04 09:15:40;;;;;;;;;;;;;;;;;;5013669;28;19932;-68
2022/05/04 09:18:06;;;;;;;;;;;;;;;;;;5012539;28;19921;-67
2022/05/04 09:20:53;;;;;;;;;;;;;;;;;;5009984;28;19917;-69
2022/05/04 09:23:19;;;;;;;;;;;;;;;;;;5007036;28;19921;-67
2022/05/04 09:25:45;;;;;;;;;;;;;;;;;;5023682;28;19971;-65
2022/05/04 09:28:11;;;;;;;;;;;;;;;;;;5008427;28;20007;-63
2022/05/04 09:30:38;;;;;;;;;;;;;;;;;;5024355;28;19983;-63
2022/05/04 09:33:04;;;;;;;;;;;;;;;;;;5024328;28;20036;-63
2022/05/04 09:35:30;;;;;;;;;;;;;;;;;;5031889;28;19924;-61
2022/05/04 09:46:10;;;;;;;;;;;;;;;;;;5024907;28;20821;-62
2022/05/04 09:48:36;;;;;;;;;;;;;;;;;;5021630;28;20424;-63
2022/05/04 09:51:03;;;;;;;;;;;;;;;;;;5038139;28;19947;-62
2022/05/04 09:53:29;;;;;;;;;;;;;;;;;;5002675;28;19956;-63
2022/05/04 09:55:55;;;;;;;;;;;;;;;;;;5013921;28;20034;-63
2022/05/04 09:58:21;;;;;;;;;;;;;;;;;;5022136;28;19923;-63
2022/05/04 10:00:47;;;;;;;;;;;;;;;;;;5003647;28;20373;-63
2022/05/04 10:03:13;;;;;;;;;;;;;;;;;;5025956;28;19923;-63
2022/05/04 10:05:41;;;;;;;;;;;;;;;;;;5014954;28;20209;-63
2022/05/04 10:08:07;;;;;;;;;;;;;;;;;;5004090;28;20142;-63
2022/05/04 10:10:33;;;;;;;;;;;;;;;;;;5018964;28;20373;-63
2022/05/04 10:12:59;;;;;;;;;;;;;;;;;;5034964;28;19970;-62
2022/05/04 10:15:25;;;;;;;;;;;;;;;;;;5017880;28;19917;-62
2022/05/04 10:17:54;;;;;;;;;;;;;;;;;;5001057;28;20339;-63
2022/05/04 10:20:20;;;;;;;;;;;;;;;;;;5028201;28;19922;-63
2022/05/04 10:22:46;;;;;;;;;;;;;;;;;;5007107;28;19916;-63
2022/05/04 10:25:12;;;;;;;;;;;;;;;;;;5007156;28;19921;-63
2022/05/04 10:27:38;;;;;;;;;;;;;;;;;;5004314;28;20436;-62
2022/05/04 10:32:48;;;;;;;;;;;;;;;;;;5022919;28;20384;-63
2022/05/04 10:35:14;;;;;;;;;;;;;;;;;;5010691;28;20254;-63
2022/05/04 10:37:40;;;;;;;;;;;;;;;;;;5019443;28;19917;-62
2022/05/04 10:40:06;;;;;;;;;;;;;;;;;;5023108;28;19923;-63
2022/05/04 10:42:32;;;;;;;;;;;;;;;;;;5024666;28;19931;-62
2022/05/04 10:44:58;;;;;;;;;;;;;;;;;;5023435;28;20662;-62
2022/05/04 10:47:25;;;;;;;;;;;;;;;;;;5025887;28;20371;-62
2022/05/04 10:49:51;;;;;;;;;;;;;;;;;;5003313;28;19983;-62
2022/05/04 10:52:17;;;;;;;;;;;;;;;;;;5018634;28;20449;-63
2022/05/04 10:54:43;;;;;;;;;;;;;;;;;;5017068;28;20331;-63
2022/05/04 10:57:09;;;;;;;;;;;;;;;;;;5028757;28;20020;-62
2022/05/04 10:59:35;;;;;;;;;;;;;;;;;;5015360;28;20041;-65
2022/05/04 11:02:04;;;;;;;;;;;;;;;;;;5023377;28;19928;-65
2022/05/04 11:04:30;;;;;;;;;;;;;;;;;;5003639;28;19921;-65
2022/05/04 11:06:56;;;;;;;;;;;;;;;;;;5019791;28;19994;-65
2022/05/04 11:09:24;;;;;;;;;;;;;;;;;;5026266;28;20022;-65
2022/05/04 11:11:50;;;;;;;;;;;;;;;;;;5022058;28;19963;-65
2022/05/04 11:14:16;;;;;;;;;;;;;;;;;;5010251;28;20403;-66
2022/05/04 11:16:42;;;;;;;;;;;;;;;;;;5021799;28;19921;-65
2022/05/04 11:19:08;;;;;;;;;;;;;;;;;;5026356;28;19983;-65
2022/05/04 11:21:34;;;;;;;;;;;;;;;;;;5024457;28;19957;-65
2022/05/04 11:24:00;;;;;;;;;;;;;;;;;;5007165;28;19916;-66
2022/05/04 11:26:26;;;;;;;;;;;;;;;;;;5018521;28;20172;-66
2022/05/04 11:28:52;;;;;;;;;;;;;;;;;;5020567;28;19925;-67
2022/05/04 11:31:18;;;;;;;;;;;;;;;;;;5029742;28;19942;-64
2022/05/04 11:33:44;;;;;;;;;;;;;;;;;;5008359;28;19917;-64
2022/05/04 11:36:10;;;;;;;;;;;;;;;;;;4998724;28;21005;-63
2022/05/04 11:38:36;;;;;;;;;;;;;;;;;;4975718;28;20342;-63
2022/05/04 11:41:02;;;;;;;;;;;;;;;;;;5036785;28;19923;-62
2022/05/04 11:43:28;;;;;;;;;;;;;;;;;;5020745;28;19917;-65
2022/05/04 11:45:54;;;;;;;;;;;;;;;;;;5011821;28;19928;-63
2022/05/04 11:48:20;;;;;;;;;;;;;;;;;;5033525;28;20023;-63
2022/05/04 11:50:46;;;;;;;;;;;;;;;;;;5030509;28;20022;-63
2022/05/04 11:53:12;;;;;;;;;;;;;;;;;;5031321;28;20023;-63
2022/05/04 11:55:38;;;;;;;;;;;;;;;;;;5023520;28;19921;-62
2022/05/04 11:58:04;;;;;;;;;;;;;;;;;;5033263;28;20279;-63
2022/05/04 12:00:30;;;;;;;;;;;;;;;;;;5034359;28;19917;-63
2022/05/04 12:02:56;;;;;;;;;;;;;;;;;;5009886;28;20293;-63
2022/05/04 12:05:22;;;;;;;;;;;;;;;;;;5029488;28;20038;-63
2022/05/04 12:07:48;;;;;;;;;;;;;;;;;;5026481;28;19920;-63
2022/05/04 12:10:14;;;;;;;;;;;;;;;;;;5034237;28;19917;-62
2022/05/04 12:12:41;;;;;;;;;;;;;;;;;;4979748;28;20376;-62
2022/05/04 12:15:07;;;;;;;;;;;;;;;;;;4988182;28;20397;-63
2022/05/04 12:17:35;;;;;;;;;;;;;;;;;;4985316;28;20461;-63
2022/05/04 12:20:03;;;;;;;;;;;;;;;;;;4982193;28;21022;-63
2022/05/04 12:22:29;;;;;;;;;;;;;;;;;;4974232;28;19917;-65
2022/05/04 12:24:55;;;;;;;;;;;;;;;;;;4982497;28;20286;-64
2022/05/04 12:27:21;;;;;;;;;;;;;;;;;;4981827;28;19924;-64
2022/05/04 12:35:18;;;;;;;;;;;;;;;;;;4983229;28;20027;-72
2022/05/04 12:37:44;;;;;;;;;;;;;;;;;;4987354;28;19924;-67
2022/05/04 12:40:13;;;;;;;;;;;;;;;;;;5021713;28;20461;-71
2022/05/04 12:42:42;;;;;;;;;;;;;;;;;;5009711;28;19995;-71
2022/05/04 12:45:08;;;;;;;;;;;;;;;;;;5027753;28;19924;-68
2022/05/04 12:47:34;;;;;;;;;;;;;;;;;;5025133;28;20412;-67
2022/05/04 12:50:00;;;;;;;;;;;;;;;;;;5032244;28;19916;-68
2022/05/04 12:52:30;;;;;;;;;;;;;;;;;;5012173;28;20481;-67
2022/05/04 12:54:56;;;;;;;;;;;;;;;;;;5030453;28;20009;-67
2022/05/04 12:57:22;;;;;;;;;;;;;;;;;;5033128;28;20560;-66
2022/05/04 12:59:48;;;;;;;;;;;;;;;;;;5030398;28;19917;-67
2022/05/04 13:02:14;;;;;;;;;;;;;;;;;;5021598;28;20017;-68
2022/05/04 13:04:40;;;;;;;;;;;;;;;;;;5036932;28;19925;-67
2022/05/04 13:07:06;;;;;;;;;;;;;;;;;;5038542;28;20373;-67
2022/05/04 13:09:32;;;;;;;;;;;;;;;;;;5041256;28;19922;-67
2022/05/04 13:11:58;;;;;;;;;;;;;;;;;;5018766;28;19957;-66
2022/05/04 13:14:24;;;;;;;;;;;;;;;;;;4995694;28;20451;-66
2022/05/04 13:16:50;;;;;;;;;;;;;;;;;;4962171;28;19928;-65
2022/05/04 13:19:17;;;;;;;;;;;;;;;;;;4960925;28;19974;-66
2022/05/04 13:21:43;;;;;;;;;;;;;;;;;;4972832;28;20788;-67
2022/05/04 13:24:18;;;;;;;;;;;;;;;;;;4975716;28;19921;-67
2022/05/04 13:26:44;;;;;;;;;;;;;;;;;;4995061;28;20318;-69
2022/05/04 13:29:10;;;;;;;;;;;;;;;;;;4975135;28;19917;-70
2022/05/04 13:31:36;;;;;;;;;;;;;;;;;;4997568;28;19944;-71
2022/05/04 13:34:03;;;;;;;;;;;;;;;;;;4985457;28;20011;-69
2022/05/04 13:36:29;;;;;;;;;;;;;;;;;;4958846;28;19920;-70
2022/05/04 13:38:55;;;;;;;;;;;;;;;;;;4978674;28;19924;-65
2022/05/04 13:41:22;;;;;;;;;;;;;;;;;;4995353;28;20449;-64
2022/05/04 13:43:48;;;;;;;;;;;;;;;;;;4971887;28;20228;-64
2022/05/04 13:46:19;;;;;;;;;;;;;;;;;;4986628;28;20463;-65
2022/05/04 13:48:46;;;;;;;;;;;;;;;;;;4968154;28;20414;-65
2022/05/04 13:53:57;;;;;;;;;;;;;;;;;;5039202;28;20078;-63
2022/05/04 13:56:23;;;;;;;;;;;;;;;;;;5036324;28;19923;-64
2022/05/04 13:58:49;;;;;;;;;;;;;;;;;;5035977;28;20333;-63
2022/05/04 14:01:15;;;;;;;;;;;;;;;;;;5037032;28;19920;-67
2022/05/04 14:03:41;;;;;;;;;;;;;;;;;;5019873;28;20278;-66
2022/05/04 14:06:07;;;;;;;;;;;;;;;;;;5031362;28;19994;-67
2022/05/04 14:08:36;;;;;;;;;;;;;;;;;;5036573;28;19920;-66
2022/05/04 14:11:05;;;;;;;;;;;;;;;;;;5025178;28;20345;-71
2022/05/04 14:13:32;;;;;;;;;;;;;;;;;;5027450;28;19974;-66
2022/05/04 14:15:59;;;;;;;;;;;;;;;;;;5033494;28;19948;-68
2022/05/04 14:18:25;;;;;;;;;;;;;;;;;;5037170;28;19921;-67
2022/05/04 14:20:52;;;;;;;;;;;;;;;;;;5033120;28;20018;-68
2022/05/04 14:23:17;;;;;;;;;;;;;;;;;;5017074;28;20684;-68
2022/05/04 14:25:43;;;;;;;;;;;;;;;;;;5016283;28;19926;-69
2022/05/04 14:28:10;;;;;;;;;;;;;;;;;;5035993;28;20375;-69
2022/05/04 14:30:36;;;;;;;;;;;;;;;;;;5013664;28;19920;-69
2022/05/04 14:33:05;;;;;;;;;;;;;;;;;;5024443;28;20284;-68
2022/05/04 14:35:31;;;;;;;;;;;;;;;;;;5019525;28;19920;-69
2022/05/04 14:37:58;;;;;;;;;;;;;;;;;;5032526;28;19917;-69
2022/05/04 14:40:24;;;;;;;;;;;;;;;;;;5023202;28;20423;-69
2022/05/04 14:42:56;;;;;;;;;;;;;;;;;;5032244;28;19916;-68
2022/05/04 14:45:22;;;;;;;;;;;;;;;;;;5016639;28;19930;-68
2022/05/04 14:47:50;;;;;;;;;;;;;;;;;;5035493;28;20460;-69
2022/05/04 14:50:16;;;;;;;;;;;;;;;;;;5043238;28;19943;-68
2022/05/04 14:52:42;;;;;;;;;;;;;;;;;;5043695;28;19916;-69
2022/05/04 14:55:08;;;;;;;;;;;;;;;;;;5037864;28;19917;-69
2022/05/04 14:57:36;;;;;;;;;;;;;;;;;;5035525;28;19960;-67
2022/05/04 15:00:05;;;;;;;;;;;;;;;;;;5020378;28;19920;-67
2022/05/04 15:02:31;;;;;;;;;;;;;;;;;;5037328;28;19930;-68
2022/05/04 15:05:03;;;;;;;;;;;;;;;;;;5030495;28;19933;-68
2022/05/04 15:07:29;;;;;;;;;;;;;;;;;;5019139;28;19922;-69
2022/05/04 15:09:55;;;;;;;;;;;;;;;;;;5035427;28;19917;-69
2022/05/04 15:12:21;;;;;;;;;;;;;;;;;;5038464;28;19920;-68
2022/05/04 15:14:47;;;;;;;;;;;;;;;;;;5036704;28;19924;-68
2022/05/04 15:17:13;;;;;;;;;;;;;;;;;;5039753;28;19962;-67
2022/05/04 15:19:42;;;;;;;;;;;;;;;;;;5023589;28;19917;-66
2022/05/04 15:22:08;;;;;;;;;;;;;;;;;;5016415;28;19921;-66
2022/05/04 15:24:34;;;;;;;;;;;;;;;;;;5033496;28;19917;-66
2022/05/04 15:27:01;;;;;;;;;;;;;;;;;;5018057;28;19990;-67
2022/05/04 15:29:27;;;;;;;;;;;;;;;;;;5021015;28;19932;-67
2022/05/04 15:31:54;;;;;;;;;;;;;;;;;;5027530;28;19921;-69
2022/05/04 15:34:20;;;;;;;;;;;;;;;;;;5047489;28;19917;-69
2022/05/04 15:36:47;;;;;;;;;;;;;;;;;;5043242;28;20101;-68
2022/05/04 15:39:13;;;;;;;;;;;;;;;;;;5053255;28;19923;-68
2022/05/04 15:41:40;;;;;;;;;;;;;;;;;;5041729;28;19916;-68
2022/05/04 15:44:06;;;;;;;;;;;;;;;;;;5019658;28;19924;-68
2022/05/04 15:46:32;;;;;;;;;;;;;;;;;;5042874;28;20126;-68
2022/05/04 15:48:58;;;;;;;;;;;;;;;;;;5021378;28;19956;-68
2022/05/04 15:51:24;;;;;;;;;;;;;;;;;;5036988;28;20643;-69
2022/05/04 15:53:50;;;;;;;;;;;;;;;;;;5037906;28;19924;-66
2022/05/04 15:56:16;;;;;;;;;;;;;;;;;;5017651;28;19927;-66
2022/05/04 15:58:42;;;;;;;;;;;;;;;;;;5022528;28;19916;-66
2022/05/04 16:01:08;;;;;;;;;;;;;;;;;;5035528;28;20021;-67
2022/05/04 16:06:20;;;;;;;;;;;;;;;;;;5037065;28;20828;-66
2022/05/04 16:08:46;;;;;;;;;;;;;;;;;;5016567;28;20373;-67
2022/05/04 16:11:12;;;;;;;;;;;;;;;;;;5023869;28;20116;-66
2022/05/04 16:13:38;;;;;;;;;;;;;;;;;;5043545;28;19916;-67
2022/05/04 16:16:04;;;;;;;;;;;;;;;;;;5046975;28;20328;-66
2022/05/04 16:23:59;;;;;;;;;;;;;;;;;;5038391;28;20036;-68
2022/05/04 16:26:29;;;;;;;;;;;;;;;;;;5024624;28;19920;-70
2022/05/04 16:28:55;;;;;;;;;;;;;;;;;;5018098;28;20022;-69
2022/05/04 16:31:21;;;;;;;;;;;;;;;;;;5043589;28;20043;-70
2022/05/04 16:33:47;;;;;;;;;;;;;;;;;;5042004;28;19991;-70
2022/05/04 16:36:13;;;;;;;;;;;;;;;;;;5022447;28;20219;-70
2022/05/04 16:38:41;;;;;;;;;;;;;;;;;;5029469;28;19923;-69
2022/05/04 16:41:08;;;;;;;;;;;;;;;;;;5026391;28;20701;-70
2022/05/04 16:43:34;;;;;;;;;;;;;;;;;;5019785;28;19936;-70
2022/05/04 16:46:01;;;;;;;;;;;;;;;;;;5039169;28;19928;-70
2022/05/04 16:48:27;;;;;;;;;;;;;;;;;;5044553;28;19952;-69
2022/05/04 16:50:53;;;;;;;;;;;;;;;;;;5041550;28;20591;-69
2022/05/04 16:53:29;;;;;;;;;;;;;;;;;;5043680;28;19963;-71
2022/05/04 16:56:00;;;;;;;;;;;;;;;;;;5022078;28;19920;-71
2022/05/04 16:58:26;;;;;;;;;;;;;;;;;;5029735;28;20272;-69
2022/05/04 17:00:53;;;;;;;;;;;;;;;;;;5021300;28;19921;-69
2022/05/04 17:03:24;;;;;;;;;;;;;;;;;;5044905;28;19954;-70
2022/05/04 17:05:50;;;;;;;;;;;;;;;;;;5033566;28;19930;-69
2022/05/04 17:08:16;;;;;;;;;;;;;;;;;;5022436;28;19917;-67
2022/05/04 17:10:42;;;;;;;;;;;;;;;;;;5019479;28;20407;-66
2022/05/04 17:13:08;;;;;;;;;;;;;;;;;;5042558;28;19924;-66
2022/05/04 17:15:34;;;;;;;;;;;;;;;;;;5041750;28;20595;-66
2022/05/04 17:18:00;;;;;;;;;;;;;;;;;;5023988;28;19960;-66
2022/05/04 17:20:26;;;;;;;;;;;;;;;;;;5016622;28;20010;-69
2022/05/04 17:22:52;;;;;;;;;;;;;;;;;;5028159;28;20871;-66
2022/05/04 17:25:18;;;;;;;;;;;;;;;;;;5018099;28;19971;-68
2022/05/04 17:27:45;;;;;;;;;;;;;;;;;;5040443;28;20034;-67
2022/05/04 17:30:11;;;;;;;;;;;;;;;;;;5039776;28;19916;-67
2022/05/04 17:38:07;;;;;;;;;;;;;;;;;;5041459;28;20289;-66